Time;durP1;ratioP1;P1;durP2;ratioP2;P2;SDS_P1;SDS_P2;PMS_P1;PMS_P2;Temp;Humidity;BMP_temperature;BMP_pressure;BME280_temperature;BME280_humidity;BME280_pressure;Samples;Min_cycle;Max_cycle;Signal;HPM_P1;HPM_P2
2023/05/26 00:01:36;;;;;;;31.35;6.28;;;12.30;99.90;;;;;;4167189;28;20651;-92
2023/05/26 00:03:38;;;;;;;38.92;7.40;;;12.30;99.90;;;;;;4167146;28;20211;-91
2023/05/26 00:05:40;;;;;;;36.80;7.15;;;12.20;99.90;;;;;;4183483;28;20203;-91
2023/05/26 00:07:40;;;;;;;39.25;6.63;;;12.10;99.90;;;;;;4183512;28;20199;-91
2023/05/26 00:09:41;;;;;;;43.17;6.72;;;12.10;99.90;;;;;;4183378;28;20163;-88
2023/05/26 00:11:42;;;;;;;39.28;7.40;;;12.10;99.90;;;;;;4167073;28;20188;-92
2023/05/26 00:13:43;;;;;;;46.00;7.43;;;12.10;99.90;;;;;;4166812;28;20187;-91
2023/05/26 00:15:43;;;;;;;45.55;6.80;;;12.00;99.90;;;;;;4166504;28;20290;-91
2023/05/26 00:17:47;;;;;;;38.72;7.65;;;12.00;99.90;;;;;;4166768;28;20645;-90
2023/05/26 00:19:49;;;;;;;39.75;6.75;;;12.00;99.90;;;;;;4183258;28;20163;-91
2023/05/26 00:21:49;;;;;;;39.80;7.13;;;12.00;99.90;;;;;;4182934;28;20206;-92
2023/05/26 00:23:50;;;;;;;38.38;7.65;;;12.00;99.90;;;;;;4166410;28;20176;-90
2023/05/26 00:25:51;;;;;;;45.90;7.65;;;12.00;99.90;;;;;;4166395;28;20184;-91
2023/05/26 00:27:51;;;;;;;44.47;7.87;;;12.00;99.90;;;;;;4166159;28;20180;-90
2023/05/26 00:29:52;;;;;;;34.53;7.50;;;11.90;99.90;;;;;;4166278;28;20172;-93
2023/05/26 00:31:53;;;;;;;41.55;7.18;;;11.90;99.90;;;;;;4182933;28;20226;-91
2023/05/26 00:33:54;;;;;;;52.43;7.70;;;11.80;99.90;;;;;;4182715;28;20163;-91
2023/05/26 00:35:55;;;;;;;36.93;6.97;;;11.70;99.90;;;;;;4182705;28;20223;-90
2023/05/26 00:37:56;;;;;;;32.92;6.80;;;11.70;99.90;;;;;;4166199;28;20176;-91
2023/05/26 00:39:57;;;;;;;31.77;6.47;;;11.70;99.90;;;;;;4166403;28;20687;-92
2023/05/26 00:41:58;;;;;;;40.37;7.23;;;11.70;99.90;;;;;;4166504;28;20249;-91
2023/05/26 00:43:59;;;;;;;31.20;7.17;;;11.70;99.90;;;;;;4182848;28;20226;-92
2023/05/26 00:45:59;;;;;;;34.67;7.78;;;11.70;99.90;;;;;;4182493;28;20196;-90
2023/05/26 00:48:00;;;;;;;39.40;8.20;;;11.70;99.90;;;;;;4165940;28;20176;-91
2023/05/26 00:50:02;;;;;;;44.35;7.05;;;11.70;99.90;;;;;;4182587;28;20203;-91
2023/05/26 00:52:03;;;;;;;35.60;7.03;;;11.70;99.90;;;;;;4166286;28;20178;-91
2023/05/26 00:54:05;;;;;;;49.07;7.00;;;11.70;99.90;;;;;;4165990;28;20218;-92
2023/05/26 00:56:07;;;;;;;34.60;7.15;;;11.60;99.90;;;;;;4165853;28;20346;-92
2023/05/26 00:58:08;;;;;;;41.53;7.05;;;11.60;99.90;;;;;;4181833;28;20241;-92
2023/05/26 01:00:09;;;;;;;34.80;7.50;;;11.50;99.90;;;;;;4165944;28;20176;-90
2023/05/26 01:02:12;;;;;;;34.37;6.53;;;11.40;99.90;;;;;;4181794;28;20180;-91
2023/05/26 01:04:12;;;;;;;39.37;7.40;;;11.40;99.90;;;;;;4165957;28;20168;-91
2023/05/26 01:06:13;;;;;;;39.87;7.20;;;11.50;99.90;;;;;;4165577;28;20196;-92
2023/05/26 01:08:14;;;;;;;43.83;8.17;;;11.50;99.90;;;;;;4182354;28;20199;-90
2023/05/26 01:10:16;;;;;;;38.63;6.77;;;11.50;99.90;;;;;;4165945;28;20187;-92
2023/05/26 01:12:35;;;;;;;36.57;7.13;;;11.50;99.90;;;;;;4182514;28;20226;-91
2023/05/26 01:14:47;;;;;;;39.17;7.43;;;11.40;99.90;;;;;;4165704;28;20180;-91
2023/05/26 01:17:04;;;;;;;36.70;6.50;;;11.40;99.90;;;;;;4165676;28;20249;-92
2023/05/26 01:19:26;;;;;;;37.30;7.50;;;11.30;99.90;;;;;;4182079;28;20179;-91
2023/05/26 01:21:30;;;;;;;40.73;7.23;;;11.20;99.90;;;;;;4165644;28;20230;-90
2023/05/26 01:23:52;;;;;;;38.23;7.20;;;11.10;99.90;;;;;;4182334;28;20172;-91
2023/05/26 01:26:18;;;;;;;29.53;6.67;;;11.10;99.90;;;;;;4165446;28;20223;-90
2023/05/26 01:28:26;;;;;;;32.93;7.13;;;11.10;99.90;;;;;;4182143;28;20213;-92
2023/05/26 01:30:29;;;;;;;32.07;6.80;;;11.00;99.90;;;;;;4165675;28;20175;-91
2023/05/26 01:32:29;;;;;;;40.70;7.63;;;11.00;99.90;;;;;;4182229;28;20183;-90
2023/05/26 01:34:30;;;;;;;40.07;7.20;;;11.00;99.90;;;;;;4165672;28;20172;-91
2023/05/26 01:36:31;;;;;;;39.23;7.13;;;11.00;99.90;;;;;;4165648;28;20212;-90
2023/05/26 01:38:32;;;;;;;35.30;7.13;;;11.00;99.90;;;;;;4165396;28;20223;-92
2023/05/26 01:40:33;;;;;;;43.47;7.43;;;11.00;99.90;;;;;;4182180;28;20214;-90
2023/05/26 01:42:40;;;;;;;34.43;6.70;;;11.00;99.90;;;;;;4165530;28;20199;-91
2023/05/26 01:45:04;;;;;;;37.17;6.67;;;10.90;99.90;;;;;;4182052;28;20171;-91
2023/05/26 01:47:06;;;;;;;43.03;7.03;;;10.80;99.90;;;;;;4165397;28;20172;-91
2023/05/26 01:49:09;;;;;;;41.97;6.90;;;10.80;99.90;;;;;;4165278;28;20168;-92
2023/05/26 01:51:13;;;;;;;35.63;6.80;;;10.70;99.90;;;;;;4165539;28;20229;-90
2023/05/26 01:53:17;;;;;;;40.57;6.53;;;10.80;99.90;;;;;;4181638;28;20168;-90
2023/05/26 01:55:21;;;;;;;32.20;6.57;;;10.80;99.90;;;;;;4164993;28;20294;-93
2023/05/26 01:57:23;;;;;;;39.10;6.50;;;10.70;99.90;;;;;;4181634;28;20663;-90
2023/05/26 01:59:25;;;;;;;45.20;7.67;;;10.70;99.90;;;;;;4165043;28;20172;-91
2023/05/26 02:01:26;;;;;;;36.03;6.90;;;10.70;99.90;;;;;;4165195;28;20768;-88
2023/05/26 02:03:26;;;;;;;39.57;7.47;;;10.70;99.90;;;;;;4165283;28;20164;-90
2023/05/26 02:05:27;;;;;;;38.80;7.13;;;10.70;99.90;;;;;;4165054;28;20316;-91
2023/05/26 02:07:29;;;;;;;38.77;7.70;;;10.70;99.90;;;;;;4165013;28;20172;-91
2023/05/26 02:09:30;;;;;;;36.80;7.27;;;10.70;99.90;;;;;;4164210;28;20226;-90
2023/05/26 02:11:32;;;;;;;38.50;7.87;;;10.60;99.90;;;;;;4164988;28;20188;-89
2023/05/26 02:13:32;;;;;;;42.43;7.50;;;10.60;99.90;;;;;;4164927;28;20246;-91
2023/05/26 02:15:33;;;;;;;32.97;7.87;;;10.50;99.90;;;;;;4181112;28;20203;-90
2023/05/26 02:17:35;;;;;;;43.07;6.53;;;10.60;99.90;;;;;;4181537;28;20189;-90
2023/05/26 02:19:36;;;;;;;46.03;8.20;;;10.50;99.90;;;;;;4164899;28;20267;-92
2023/05/26 02:21:37;;;;;;;37.70;6.97;;;10.60;99.90;;;;;;4164816;28;20572;-90
2023/05/26 02:23:38;;;;;;;36.10;6.67;;;10.50;99.90;;;;;;4164990;28;20173;-90
2023/05/26 02:25:40;;;;;;;41.23;7.37;;;10.50;99.90;;;;;;4164911;28;20196;-89
2023/05/26 02:27:41;;;;;;;33.97;7.63;;;10.40;99.90;;;;;;4164952;28;20283;-92
2023/05/26 02:29:44;;;;;;;38.20;7.27;;;10.40;99.90;;;;;;4181302;28;20289;-89
2023/05/26 02:31:46;;;;;;;40.93;6.07;;;10.50;99.90;;;;;;4181373;28;20205;-90
2023/05/26 02:33:47;;;;;;;41.83;8.90;;;10.40;99.90;;;;;;4181043;28;20226;-90
2023/05/26 02:35:48;;;;;;;35.53;7.17;;;10.40;99.90;;;;;;4164431;28;20266;-91
2023/05/26 02:37:49;;;;;;;48.17;7.70;;;10.40;99.90;;;;;;4164236;28;20180;-90
2023/05/26 02:39:49;;;;;;;41.17;7.53;;;10.50;99.90;;;;;;4164590;28;20176;-90
2023/05/26 02:41:52;;;;;;;38.20;7.30;;;10.40;99.90;;;;;;4181197;28;20178;-92
2023/05/26 02:43:52;;;;;;;37.97;7.10;;;10.40;99.90;;;;;;4164545;28;20273;-91
2023/05/26 02:45:58;;;;;;;48.77;7.00;;;10.30;99.90;;;;;;4180933;28;20286;-91
2023/05/26 02:47:59;;;;;;;44.73;7.30;;;10.30;99.90;;;;;;4164808;28;20299;-91
2023/05/26 02:50:00;;;;;;;42.50;7.40;;;10.30;99.90;;;;;;4180953;28;20178;-91
2023/05/26 02:52:01;;;;;;;38.57;8.07;;;10.20;99.90;;;;;;4164461;28;20217;-90
2023/05/26 02:54:02;;;;;;;42.10;6.13;;;10.20;99.90;;;;;;4182042;28;20159;-91
2023/05/26 02:56:03;;;;;;;43.00;7.50;;;10.20;99.90;;;;;;4164375;28;20266;-91
2023/05/26 02:58:03;;;;;;;44.03;7.10;;;10.20;99.90;;;;;;4181036;28;20672;-90
2023/05/26 03:00:12;;;;;;;42.27;7.10;;;10.10;99.90;;;;;;4164565;28;20184;-91
2023/05/26 03:02:13;;;;;;;45.60;7.13;;;10.20;99.90;;;;;;4180704;28;20224;-91
2023/05/26 03:04:13;;;;;;;37.07;6.63;;;10.10;99.90;;;;;;4164714;28;20726;-93
2023/05/26 03:06:16;;;;;;;35.13;7.40;;;10.20;99.90;;;;;;4180802;28;20191;-94
2023/05/26 03:08:17;;;;;;;42.47;7.33;;;10.10;99.90;;;;;;4164425;28;20413;-94
2023/05/26 03:10:18;;;;;;;44.40;7.13;;;10.00;99.90;;;;;;4180771;28;20171;-93
2023/05/26 03:12:19;;;;;;;44.40;6.90;;;10.00;99.90;;;;;;4164285;28;20184;-91
2023/05/26 03:14:20;;;;;;;39.33;8.00;;;9.90;99.90;;;;;;4164387;28;20576;-88
2023/05/26 03:16:23;;;;;;;30.87;6.67;;;9.90;99.90;;;;;;4164289;28;20266;-89
2023/05/26 03:18:24;;;;;;;33.07;6.60;;;9.90;99.90;;;;;;4164576;28;20533;-88
2023/05/26 03:20:24;;;;;;;42.03;7.30;;;10.00;99.90;;;;;;4165762;28;20202;-93
2023/05/26 03:22:25;;;;;;;38.13;7.77;;;10.00;99.90;;;;;;4184188;28;20659;-88
2023/05/26 03:24:26;;;;;;;36.33;7.10;;;9.90;99.90;;;;;;4167779;28;20172;-89
2023/05/26 03:26:27;;;;;;;40.03;6.73;;;9.90;99.90;;;;;;4184088;28;20802;-94
2023/05/26 03:28:29;;;;;;;42.50;6.73;;;9.80;99.90;;;;;;4167760;28;20294;-91
2023/05/26 03:30:31;;;;;;;44.63;7.57;;;9.90;99.90;;;;;;4167748;28;20653;-88
2023/05/26 03:32:32;;;;;;;36.50;6.87;;;9.80;99.90;;;;;;4167215;28;20176;-88
2023/05/26 03:34:38;;;;;;;38.47;7.13;;;9.90;99.90;;;;;;4167508;28;20633;-89
2023/05/26 03:36:39;;;;;;;44.97;8.13;;;9.80;99.90;;;;;;4183716;28;20687;-88
2023/05/26 03:38:52;;;;;;;39.03;6.97;;;9.80;99.90;;;;;;4183796;28;20171;-89
2023/05/26 03:40:52;;;;;;;53.97;7.87;;;9.80;99.90;;;;;;4183753;28;20163;-92
2023/05/26 03:42:53;;;;;;;46.87;8.23;;;9.70;99.90;;;;;;4167024;28;20175;-93
2023/05/26 03:44:55;;;;;;;52.47;7.87;;;9.70;99.90;;;;;;4166969;28;20620;-94
2023/05/26 03:46:55;;;;;;;41.40;6.83;;;9.70;99.90;;;;;;4167426;28;20176;-93
2023/05/26 03:48:56;;;;;;;35.70;7.10;;;9.70;99.90;;;;;;4167234;28;20237;-89
2023/05/26 03:50:57;;;;;;;42.00;7.03;;;9.70;99.90;;;;;;4167147;28;20176;-91
2023/05/26 03:52:58;;;;;;;51.17;8.67;;;9.70;99.90;;;;;;4167193;28;20168;-88
2023/05/26 03:54:59;;;;;;;46.53;7.33;;;9.60;99.90;;;;;;4166874;28;20267;-89
2023/05/26 03:57:01;;;;;;;39.00;6.73;;;9.60;99.90;;;;;;4167054;28;20177;-93
2023/05/26 03:59:02;;;;;;;45.47;7.10;;;9.60;99.90;;;;;;4183337;28;20174;-89
2023/05/26 04:01:03;;;;;;;44.20;7.50;;;9.70;99.90;;;;;;4166979;28;20176;-90
2023/05/26 04:03:04;;;;;;;48.83;8.17;;;9.70;99.90;;;;;;4167012;28;20180;-88
2023/05/26 04:05:05;;;;;;;43.50;7.53;;;9.60;99.90;;;;;;4183445;28;20551;-88
2023/05/26 04:07:07;;;;;;;46.00;7.23;;;9.60;99.90;;;;;;4166830;28;20169;-89
2023/05/26 04:09:08;;;;;;;39.30;7.87;;;9.60;99.90;;;;;;4166692;28;20731;-89
2023/05/26 04:11:09;;;;;;;35.70;6.83;;;9.60;99.90;;;;;;4166931;28;20169;-88
2023/05/26 04:13:11;;;;;;;43.40;7.10;;;9.50;99.90;;;;;;4166993;28;20664;-94
2023/05/26 04:15:12;;;;;;;38.30;6.03;;;9.50;99.90;;;;;;4183347;28;20725;-94
2023/05/26 04:17:12;;;;;;;35.87;7.70;;;9.50;99.90;;;;;;4183386;28;20160;-94
2023/05/26 04:19:13;;;;;;;40.77;7.57;;;9.60;99.90;;;;;;4166755;28;20168;-89
2023/05/26 04:21:14;;;;;;;36.40;7.37;;;9.60;99.90;;;;;;4183071;28;20182;-89
2023/05/26 04:23:15;;;;;;;41.53;7.53;;;9.70;99.90;;;;;;4166949;28;20181;-94
2023/05/26 04:25:16;;;;;;;47.87;7.93;;;9.70;99.90;;;;;;4166828;28;20192;-88
2023/05/26 04:27:30;;;;;;;47.13;7.93;;;9.70;99.90;;;;;;4183162;28;20179;-89
2023/05/26 04:29:52;;;;;;;35.67;7.03;;;9.70;99.90;;;;;;4183599;28;20182;-94
2023/05/26 04:32:33;;;;;;;40.80;7.43;;;9.60;99.90;;;;;;4164954;28;20172;-93
2023/05/26 04:35:01;;;;;;;37.30;7.97;;;9.70;99.90;;;;;;4149360;28;20199;-88
2023/05/26 04:37:11;;;;;;;38.83;7.60;;;9.80;99.90;;;;;;4170040;28;20187;-89
2023/05/26 04:39:12;;;;;;;45.63;7.57;;;9.80;99.90;;;;;;4182623;28;20260;-89
2023/05/26 04:41:13;;;;;;;39.00;6.80;;;9.90;99.90;;;;;;4166214;28;20175;-89
2023/05/26 04:43:14;;;;;;;37.43;7.87;;;9.80;99.90;;;;;;4182756;28;20175;-88
2023/05/26 04:45:15;;;;;;;37.80;7.50;;;9.80;99.90;;;;;;4166046;28;20588;-89
2023/05/26 04:47:19;;;;;;;48.57;8.10;;;9.70;99.90;;;;;;4166548;28;20172;-88
2023/05/26 04:49:23;;;;;;;47.30;7.57;;;9.70;99.90;;;;;;4166282;28;20178;-94
2023/05/26 04:51:24;;;;;;;43.13;7.77;;;9.60;99.90;;;;;;4165849;28;20203;-94
2023/05/26 04:53:25;;;;;;;41.27;7.80;;;9.70;99.90;;;;;;4166136;28;20168;-88
2023/05/26 04:55:25;;;;;;;43.77;7.40;;;9.70;99.90;;;;;;4165849;28;20207;-93
2023/05/26 04:57:26;;;;;;;51.67;8.47;;;9.70;99.90;;;;;;4166250;28;20183;-88
2023/05/26 04:59:29;;;;;;;43.33;7.70;;;9.70;99.90;;;;;;4166213;28;20226;-93
2023/05/26 05:01:32;;;;;;;41.30;8.17;;;9.70;99.90;;;;;;4165828;28;20676;-88
2023/05/26 05:03:55;;;;;;;48.33;7.67;;;9.70;99.90;;;;;;4168962;28;20171;-89
2023/05/26 05:06:02;;;;;;;37.63;6.97;;;9.80;99.90;;;;;;4182667;28;20764;-95
2023/05/26 05:08:03;;;;;;;41.50;7.33;;;9.80;99.90;;;;;;4165980;28;20172;-88
2023/05/26 05:10:04;;;;;;;37.37;7.37;;;9.80;99.90;;;;;;4165810;28;20279;-88
2023/05/26 05:12:07;;;;;;;40.77;6.43;;;9.80;99.90;;;;;;4166532;28;20263;-89
2023/05/26 05:14:09;;;;;;;45.20;7.83;;;9.90;99.90;;;;;;4182330;28;20266;-88
2023/05/26 05:16:10;;;;;;;39.03;7.60;;;10.00;99.90;;;;;;4165477;28;20220;-89
2023/05/26 05:18:11;;;;;;;38.97;6.93;;;10.00;99.90;;;;;;4166029;28;20172;-93
2023/05/26 05:20:12;;;;;;;44.40;7.87;;;10.00;99.90;;;;;;4182378;28;20253;-90
2023/05/26 05:22:14;;;;;;;42.53;7.10;;;10.00;99.90;;;;;;4165775;28;20644;-89
2023/05/26 05:24:15;;;;;;;31.70;6.37;;;10.10;99.90;;;;;;4165760;28;20183;-88
2023/05/26 05:26:16;;;;;;;41.07;7.37;;;10.10;99.90;;;;;;4165793;28;20283;-89
2023/05/26 05:28:17;;;;;;;30.37;6.53;;;10.10;99.90;;;;;;4165960;28;20199;-89
2023/05/26 05:30:31;;;;;;;50.80;7.43;;;10.20;99.90;;;;;;4168339;28;20231;-89
2023/05/26 05:32:32;;;;;;;42.97;7.53;;;10.30;99.90;;;;;;4183323;28;20266;-94
2023/05/26 05:34:33;;;;;;;43.50;7.47;;;10.40;99.90;;;;;;4167927;28;20171;-94
2023/05/26 05:36:33;;;;;;;42.83;7.27;;;10.30;99.90;;;;;;4169063;28;20223;-90
2023/05/26 05:38:34;;;;;;;31.50;6.00;;;10.20;99.90;;;;;;4177726;28;20297;-91
2023/05/26 05:40:35;;;;;;;43.27;6.97;;;10.20;99.90;;;;;;4185558;28;20179;-88
2023/05/26 05:42:36;;;;;;;48.83;6.90;;;10.30;99.90;;;;;;4182382;28;20167;-89
2023/05/26 05:44:36;;;;;;;42.80;7.00;;;10.20;99.90;;;;;;4166264;28;20267;-89
2023/05/26 05:46:37;;;;;;;37.23;7.20;;;10.30;99.90;;;;;;4182615;28;20234;-90
2023/05/26 05:48:49;;;;;;;38.47;7.50;;;10.40;99.90;;;;;;4182358;28;20179;-88
2023/05/26 05:50:57;;;;;;;40.40;6.00;;;10.40;99.90;;;;;;4167272;28;20258;-89
2023/05/26 05:52:57;;;;;;;49.33;7.60;;;10.40;99.90;;;;;;4165610;28;20180;-90
2023/05/26 05:54:58;;;;;;;42.63;7.17;;;10.40;99.90;;;;;;4165369;28;20595;-88
2023/05/26 05:57:00;;;;;;;36.70;6.53;;;10.40;99.90;;;;;;4165644;28;20215;-93
2023/05/26 05:59:01;;;;;;;40.43;7.03;;;10.40;99.90;;;;;;4165598;28;20168;-89
2023/05/26 06:01:01;;;;;;;41.47;7.20;;;10.50;99.90;;;;;;4182040;28;20209;-89
2023/05/26 06:03:02;;;;;;;30.83;6.33;;;10.60;99.90;;;;;;4165460;28;20175;-88
2023/05/26 06:05:04;;;;;;;52.63;7.50;;;10.60;99.90;;;;;;4165530;28;20235;-95
2023/05/26 06:07:05;;;;;;;33.80;6.83;;;10.70;99.90;;;;;;4182179;28;20258;-94
2023/05/26 06:09:07;;;;;;;32.57;6.10;;;10.70;99.90;;;;;;4165160;28;20179;-94
2023/05/26 06:11:08;;;;;;;40.67;6.43;;;10.90;99.90;;;;;;4165623;28;20176;-94
2023/05/26 06:13:13;;;;;;;38.53;6.17;;;10.90;99.90;;;;;;4166484;28;20210;-88
2023/05/26 06:15:14;;;;;;;31.17;6.27;;;10.90;99.90;;;;;;4165128;28;20596;-88
2023/05/26 06:17:15;;;;;;;35.90;6.07;;;11.00;99.90;;;;;;4165221;28;20176;-88
2023/05/26 06:19:15;;;;;;;38.20;7.23;;;11.00;99.90;;;;;;4181535;28;20168;-88
2023/05/26 06:21:16;;;;;;;37.27;6.43;;;11.10;99.90;;;;;;4181510;28;20179;-89
2023/05/26 06:23:20;;;;;;;44.20;6.85;;;11.20;99.90;;;;;;4166020;28;20726;-88
2023/05/26 06:25:21;;;;;;;39.17;6.63;;;11.20;99.90;;;;;;4181491;28;20195;-88
2023/05/26 06:27:22;;;;;;;33.70;6.13;;;11.30;99.90;;;;;;4181835;28;20250;-87
2023/05/26 06:29:23;;;;;;;30.33;5.70;;;11.40;99.90;;;;;;4181758;28;20258;-92
2023/05/26 06:31:25;;;;;;;43.40;6.53;;;11.50;99.90;;;;;;4166264;28;20169;-92
2023/05/26 06:33:39;;;;;;;32.90;5.03;;;11.40;99.90;;;;;;4181919;28;20226;-93
2023/05/26 06:35:39;;;;;;;41.97;7.53;;;11.50;99.90;;;;;;4166181;28;20203;-87
2023/05/26 06:37:40;;;;;;;39.30;6.47;;;11.60;99.90;;;;;;4181433;28;20191;-88
2023/05/26 06:39:41;;;;;;;36.20;6.22;;;11.70;99.90;;;;;;4181476;28;20168;-88
2023/05/26 06:41:47;;;;;;;32.92;6.50;;;11.70;99.90;;;;;;4181762;28;20175;-88
2023/05/26 06:43:47;;;;;;;41.00;7.13;;;11.70;99.90;;;;;;4166016;28;20169;-88
2023/05/26 06:45:48;;;;;;;42.38;6.50;;;11.70;99.90;;;;;;4182621;28;20231;-88
2023/05/26 06:47:49;;;;;;;35.80;5.97;;;11.60;99.90;;;;;;4166008;28;20262;-89
2023/05/26 06:49:51;;;;;;;30.65;5.57;;;11.50;99.90;;;;;;4166063;28;20250;-93
2023/05/26 06:51:51;;;;;;;43.67;6.18;;;11.60;99.90;;;;;;4164802;28;20164;-88
2023/05/26 06:53:53;;;;;;;29.33;6.13;;;11.70;99.90;;;;;;4165910;28;20222;-89
2023/05/26 06:55:54;;;;;;;34.38;5.53;;;11.90;99.90;;;;;;4169203;28;20208;-88
2023/05/26 06:57:54;;;;;;;36.08;6.55;;;11.80;99.90;;;;;;4186304;28;20179;-88
2023/05/26 06:59:55;;;;;;;47.90;7.23;;;11.70;99.90;;;;;;4171259;28;20191;-94
2023/05/26 07:01:57;;;;;;;41.10;7.10;;;11.70;99.90;;;;;;4171704;28;20241;-93
2023/05/26 07:03:58;;;;;;;46.17;6.88;;;11.70;99.90;;;;;;4170925;28;20184;-88
2023/05/26 07:05:59;;;;;;;39.85;6.35;;;11.80;99.90;;;;;;4167925;28;20290;-90
2023/05/26 07:08:02;;;;;;;34.88;7.10;;;11.80;99.90;;;;;;4184342;28;20178;-91
2023/05/26 07:10:03;;;;;;;41.53;6.47;;;12.00;99.90;;;;;;4167933;28;20168;-88
2023/05/26 07:12:06;;;;;;;34.00;5.80;;;12.70;99.90;;;;;;4168688;28;20222;-95
2023/05/26 07:14:27;;;;;;;32.67;5.75;;;13.30;99.90;;;;;;4184918;28;20183;-95
2023/05/26 07:16:27;;;;;;;33.22;5.88;;;13.80;99.90;;;;;;4168037;28;20219;-93
2023/05/26 07:18:28;;;;;;;32.20;6.72;;;14.10;99.90;;;;;;4184044;28;20210;-89
2023/05/26 07:20:29;;;;;;;35.92;6.53;;;14.30;99.90;;;;;;4167963;28;20195;-91
2023/05/26 07:22:30;;;;;;;31.73;5.60;;;14.70;99.90;;;;;;4167635;28;20202;-94
2023/05/26 07:24:41;;;;;;;32.40;6.20;;;15.10;99.90;;;;;;4184453;28;20563;-89
2023/05/26 07:26:42;;;;;;;29.08;5.43;;;15.20;99.90;;;;;;4184281;28;20191;-89
2023/05/26 07:28:43;;;;;;;36.25;6.07;;;15.20;99.90;;;;;;4184374;28;20202;-88
2023/05/26 07:30:44;;;;;;;31.70;6.10;;;15.00;99.90;;;;;;4185079;28;20172;-94
2023/05/26 07:32:47;;;;;;;33.40;6.95;;;14.90;99.90;;;;;;4168199;28;20168;-96
2023/05/26 07:34:47;;;;;;;37.95;6.28;;;14.90;99.90;;;;;;4167617;28;20313;-89
2023/05/26 07:36:48;;;;;;;29.27;6.03;;;15.10;99.90;;;;;;4167381;28;20207;-91
2023/05/26 07:38:49;;;;;;;35.40;6.30;;;15.30;99.90;;;;;;4168771;28;20204;-89
2023/05/26 07:40:51;;;;;;;34.05;5.05;;;15.40;99.90;;;;;;4168080;28;20671;-88
2023/05/26 07:42:51;;;;;;;35.35;6.30;;;15.80;99.90;;;;;;4185623;28;20226;-94
2023/05/26 07:44:54;;;;;;;27.52;5.30;;;16.00;99.90;;;;;;4168417;28;20168;-95
2023/05/26 07:46:55;;;;;;;33.25;6.18;;;15.80;99.90;;;;;;4168684;28;20267;-94
2023/05/26 07:48:55;;;;;;;29.92;5.43;;;15.60;99.90;;;;;;4172319;28;20250;-94
2023/05/26 07:50:56;;;;;;;28.70;5.25;;;15.40;99.90;;;;;;4169446;28;20179;-95
2023/05/26 07:52:57;;;;;;;33.10;6.03;;;15.60;99.90;;;;;;4168565;28;20168;-94
2023/05/26 07:54:58;;;;;;;26.67;6.30;;;15.60;99.90;;;;;;4184987;28;20521;-88
2023/05/26 07:56:58;;;;;;;30.33;5.57;;;15.90;99.90;;;;;;4168345;28;20204;-89
2023/05/26 07:58:59;;;;;;;29.10;6.10;;;15.90;99.90;;;;;;4185348;28;20201;-92
2023/05/26 08:01:00;;;;;;;29.98;6.05;;;15.90;99.90;;;;;;4186929;28;20171;-94
2023/05/26 08:03:01;;;;;;;29.02;5.18;;;15.80;99.90;;;;;;4193925;28;20163;-88
2023/05/26 08:05:01;;;;;;;28.75;4.95;;;15.90;99.90;;;;;;4197766;28;20167;-88
2023/05/26 08:07:03;;;;;;;29.27;5.88;;;15.90;99.90;;;;;;4168111;28;20376;-89
2023/05/26 08:09:03;;;;;;;28.85;5.65;;;15.90;99.90;;;;;;4168845;28;20164;-88
2023/05/26 08:11:04;;;;;;;33.10;6.78;;;15.90;99.90;;;;;;4167263;28;20176;-89
2023/05/26 08:13:05;;;;;;;33.63;5.97;;;16.00;99.90;;;;;;4167334;28;20184;-89
2023/05/26 08:15:15;;;;;;;31.60;5.75;;;16.00;99.90;;;;;;4183717;28;20679;-88
2023/05/26 08:17:16;;;;;;;35.97;5.88;;;16.30;99.90;;;;;;4184524;28;20182;-89
2023/05/26 08:19:17;;;;;;;26.77;5.65;;;16.20;99.90;;;;;;4168095;28;20548;-89
2023/05/26 08:21:18;;;;;;;29.58;5.97;;;16.40;99.90;;;;;;4167272;28;20212;-92
2023/05/26 08:23:19;;;;;;;24.50;5.28;;;16.40;99.90;;;;;;4184564;28;20172;-88
2023/05/26 08:25:20;;;;;;;25.13;5.78;;;16.60;99.90;;;;;;4183798;28;20191;-95
2023/05/26 08:27:20;;;;;;;34.10;5.60;;;17.10;99.90;;;;;;4167125;28;20172;-94
2023/05/26 08:29:22;;;;;;;30.63;5.40;;;17.00;99.90;;;;;;4168408;28;20169;-95
2023/05/26 08:31:23;;;;;;;28.20;5.60;;;17.10;99.90;;;;;;4166766;28;20564;-93
2023/05/26 08:33:24;;;;;;;33.60;6.32;;;17.10;99.90;;;;;;4183003;28;20215;-88
2023/05/26 08:35:28;;;;;;;27.30;5.03;;;16.90;99.90;;;;;;4166102;28;20192;-88
2023/05/26 08:37:28;;;;;;;32.13;5.57;;;16.90;99.90;;;;;;4166857;28;20209;-93
2023/05/26 08:39:29;;;;;;;32.83;6.30;;;17.30;99.90;;;;;;4184106;28;20171;-87
2023/05/26 08:41:44;;;;;;;29.48;5.53;;;17.50;99.90;;;;;;4167236;28;20266;-89
2023/05/26 08:43:49;;;;;;;33.28;5.20;;;17.10;99.90;;;;;;4183923;28;20203;-89
2023/05/26 08:45:51;;;;;;;26.10;5.25;;;16.80;99.90;;;;;;4168638;28;20191;-95
2023/05/26 08:47:57;;;;;;;29.55;6.13;;;16.70;99.90;;;;;;4185696;28;20194;-88
2023/05/26 08:50:03;;;;;;;21.38;5.50;;;16.60;99.90;;;;;;4166589;28;20201;-93
2023/05/26 08:52:09;;;;;;;28.75;5.05;;;16.70;99.90;;;;;;4166828;28;20652;-90
2023/05/26 08:54:11;;;;;;;31.58;5.90;;;16.40;99.90;;;;;;4167465;28;20176;-93
2023/05/26 08:56:12;;;;;;;37.67;5.53;;;16.30;99.90;;;;;;4182752;28;20587;-89
2023/05/26 08:58:14;;;;;;;28.83;5.57;;;16.30;99.90;;;;;;4166356;28;20263;-89
2023/05/26 09:00:16;;;;;;;30.38;5.57;;;16.80;99.90;;;;;;4183278;28;20207;-89
2023/05/26 09:02:17;;;;;;;30.40;5.28;;;17.10;99.90;;;;;;4183725;28;20218;-89
2023/05/26 09:04:18;;;;;;;34.25;6.53;;;17.00;99.90;;;;;;4182672;28;20266;-96
2023/05/26 09:06:18;;;;;;;29.40;5.32;;;17.10;99.90;;;;;;4182150;28;20192;-92
2023/05/26 09:08:19;;;;;;;34.15;5.90;;;17.30;99.90;;;;;;4183320;28;20171;-90
2023/05/26 09:10:25;;;;;;;21.73;5.75;;;17.70;99.90;;;;;;4166659;28;20168;-93
2023/05/26 09:12:35;;;;;;;23.63;5.57;;;17.60;99.90;;;;;;4166622;28;20251;-95
2023/05/26 09:14:36;;;;;;;31.50;6.25;;;17.60;99.90;;;;;;4133840;28;20559;-88
2023/05/26 09:16:38;;;;;;;27.83;5.47;;;17.70;99.90;;;;;;4166111;28;20224;-93
2023/05/26 09:18:41;;;;;;;26.52;5.93;;;17.90;99.90;;;;;;4166148;28;20595;-88
2023/05/26 09:20:49;;;;;;;19.00;5.30;;;18.00;99.90;;;;;;4166763;28;20255;-91
2023/05/26 09:22:50;;;;;;;27.15;5.82;;;18.10;99.90;;;;;;4183038;28;20198;-90
2023/05/26 09:24:51;;;;;;;27.05;5.25;;;18.20;99.90;;;;;;4183412;28;20180;-89
2023/05/26 09:26:51;;;;;;;30.67;5.97;;;18.10;99.90;;;;;;4185455;28;20178;-92
2023/05/26 09:28:53;;;;;;;31.33;5.50;;;18.40;99.90;;;;;;4184468;28;20237;-89
2023/05/26 09:30:53;;;;;;;30.95;5.18;;;18.40;99.90;;;;;;4183539;28;20174;-91
2023/05/26 09:32:54;;;;;;;27.60;5.22;;;18.20;99.90;;;;;;4166455;28;20251;-92
2023/05/26 09:34:56;;;;;;;22.23;4.85;;;18.10;99.90;;;;;;4166747;28;20183;-95
2023/05/26 09:36:59;;;;;;;28.65;5.65;;;17.90;99.90;;;;;;4167609;28;20257;-94
2023/05/26 09:39:01;;;;;;;30.50;5.93;;;17.50;99.90;;;;;;4167418;28;20172;-94
2023/05/26 09:41:02;;;;;;;29.45;5.80;;;17.40;99.90;;;;;;4167420;28;20215;-88
2023/05/26 09:43:02;;;;;;;29.98;6.20;;;17.50;99.90;;;;;;4183248;28;20164;-93
2023/05/26 09:45:03;;;;;;;25.85;4.45;;;17.70;99.90;;;;;;4166348;28;20211;-89
2023/05/26 09:47:06;;;;;;;28.00;5.82;;;17.70;99.90;;;;;;4166248;28;20173;-93
2023/05/26 09:49:17;;;;;;;26.48;5.68;;;17.80;99.90;;;;;;4183584;28;20176;-91
2023/05/26 09:51:20;;;;;;;31.27;5.80;;;17.60;99.90;;;;;;4167274;28;20172;-89
2023/05/26 09:53:21;;;;;;;23.55;3.95;;;17.50;99.90;;;;;;4182831;28;20709;-89
2023/05/26 09:55:21;;;;;;;31.48;5.55;;;17.50;99.90;;;;;;4166355;28;20187;-89
2023/05/26 09:57:25;;;;;;;25.50;5.63;;;17.80;99.90;;;;;;4167062;28;20195;-89
2023/05/26 09:59:38;;;;;;;29.42;6.05;;;18.20;99.90;;;;;;4165805;28;20207;-93
2023/05/26 10:01:40;;;;;;;28.65;5.43;;;18.50;99.90;;;;;;4166458;28;20183;-94
2023/05/26 10:03:41;;;;;;;27.15;5.00;;;18.60;99.90;;;;;;4166664;28;20263;-95
2023/05/26 10:05:47;;;;;;;24.17;5.32;;;18.50;99.90;;;;;;4166409;28;20184;-94
2023/05/26 10:07:48;;;;;;;32.33;5.75;;;18.40;99.90;;;;;;4166751;28;20259;-95
2023/05/26 10:09:55;;;;;;;23.15;5.40;;;18.50;99.90;;;;;;4165397;28;20215;-89
2023/05/26 10:11:58;;;;;;;23.42;5.57;;;18.50;99.90;;;;;;4181927;28;20549;-94
2023/05/26 10:13:59;;;;;;;29.73;4.80;;;18.70;99.90;;;;;;4165329;28;20629;-89
2023/05/26 10:16:01;;;;;;;22.95;5.07;;;18.70;99.90;;;;;;4181564;28;20234;-89
2023/05/26 10:18:02;;;;;;;26.20;5.50;;;18.80;99.90;;;;;;4165082;28;20382;-88
2023/05/26 10:20:04;;;;;;;27.48;5.72;;;18.40;99.90;;;;;;4181412;28;20220;-88
2023/05/26 10:22:11;;;;;;;22.80;5.10;;;18.10;99.90;;;;;;4164788;28;20172;-88
2023/05/26 10:24:40;;;;;;;24.20;4.85;;;17.80;99.90;;;;;;4181517;28;20194;-90
2023/05/26 10:27:19;;;;;;;25.20;5.55;;;17.30;99.90;;;;;;4163360;28;20779;-88
2023/05/26 10:29:31;;;;;;;26.42;5.68;;;17.00;99.90;;;;;;4164761;28;20179;-88
2023/05/26 10:31:34;;;;;;;28.15;5.68;;;16.80;99.90;;;;;;4188610;28;20236;-88
2023/05/26 10:33:42;;;;;;;24.20;5.15;;;17.10;99.90;;;;;;4171699;28;20249;-88